sensor_id;sensor_type;location;lat;lon;timestamp;pressure;altitude;pressure_sealevel;temperature;humidity
51468;BME280;37545;45.302;-122.946;2022-08-18T00:00:35;100346.50;;;37.60;28.56
51468;BME280;37545;45.302;-122.946;2022-08-18T00:03:06;100344.09;;;37.57;29.62
51468;BME280;37545;45.302;-122.946;2022-08-18T00:05:37;100339.94;;;37.53;29.77
51468;BME280;37545;45.302;-122.946;2022-08-18T00:08:06;100345.31;;;37.43;29.57
51468;BME280;37545;45.302;-122.946;2022-08-18T00:10:36;100341.44;;;37.36;29.74
51468;BME280;37545;45.302;-122.946;2022-08-18T00:13:07;100332.47;;;37.26;30.09
51468;BME280;37545;45.302;-122.946;2022-08-18T00:15:50;100341.13;;;37.20;30.87
51468;BME280;37545;45.302;-122.946;2022-08-18T00:18:18;100348.34;;;37.09;30.40
51468;BME280;37545;45.302;-122.946;2022-08-18T00:20:47;100337.91;;;36.95;30.71
51468;BME280;37545;45.302;-122.946;2022-08-18T00:23:15;100341.41;;;36.86;30.44
51468;BME280;37545;45.302;-122.946;2022-08-18T00:25:45;100345.16;;;36.74;29.06
51468;BME280;37545;45.302;-122.946;2022-08-18T00:28:15;100341.41;;;36.65;31.60
51468;BME280;37545;45.302;-122.946;2022-08-18T00:30:44;100342.81;;;36.59;32.72
51468;BME280;37545;45.302;-122.946;2022-08-18T00:33:13;100345.16;;;36.53;30.97
51468;BME280;37545;45.302;-122.946;2022-08-18T00:35:41;100330.50;;;36.45;32.18
51468;BME280;37545;45.302;-122.946;2022-08-18T00:38:10;100329.06;;;36.41;33.03
51468;BME280;37545;45.302;-122.946;2022-08-18T00:40:41;100337.81;;;36.34;31.53
51468;BME280;37545;45.302;-122.946;2022-08-18T00:43:16;100334.50;;;36.30;31.43
51468;BME280;37545;45.302;-122.946;2022-08-18T00:45:47;100334.97;;;36.35;29.76
51468;BME280;37545;45.302;-122.946;2022-08-18T00:48:15;100338.47;;;36.47;31.65
51468;BME280;37545;45.302;-122.946;2022-08-18T00:50:47;100335.38;;;36.52;30.62
51468;BME280;37545;45.302;-122.946;2022-08-18T00:53:20;100338.75;;;36.54;28.90
51468;BME280;37545;45.302;-122.946;2022-08-18T00:55:53;100333.13;;;36.57;31.16
51468;BME280;37545;45.302;-122.946;2022-08-18T00:58:27;100345.84;;;36.66;31.76
51468;BME280;37545;45.302;-122.946;2022-08-18T01:01:02;100344.72;;;36.68;29.44
51468;BME280;37545;45.302;-122.946;2022-08-18T01:03:32;100348.56;;;36.76;31.55
51468;BME280;37545;45.302;-122.946;2022-08-18T01:06:10;100350.03;;;36.80;31.00
51468;BME280;37545;45.302;-122.946;2022-08-18T01:08:42;100338.50;;;36.78;31.39
51468;BME280;37545;45.302;-122.946;2022-08-18T01:11:10;100343.47;;;36.73;30.74
51468;BME280;37545;45.302;-122.946;2022-08-18T01:13:41;100345.75;;;36.77;30.39
51468;BME280;37545;45.302;-122.946;2022-08-18T01:16:10;100339.97;;;36.82;30.98
51468;BME280;37545;45.302;-122.946;2022-08-18T01:18:55;100343.22;;;36.85;32.37
51468;BME280;37545;45.302;-122.946;2022-08-18T01:21:43;100340.03;;;36.71;31.79
51468;BME280;37545;45.302;-122.946;2022-08-18T01:24:23;100330.63;;;36.65;32.06
51468;BME280;37545;45.302;-122.946;2022-08-18T01:27:13;100323.81;;;36.61;31.29
51468;BME280;37545;45.302;-122.946;2022-08-18T01:29:43;100322.09;;;36.60;32.11
51468;BME280;37545;45.302;-122.946;2022-08-18T01:32:14;100324.03;;;36.58;32.23
51468;BME280;37545;45.302;-122.946;2022-08-18T01:34:45;100325.88;;;36.57;30.22
51468;BME280;37545;45.302;-122.946;2022-08-18T01:37:17;100332.41;;;36.55;30.56
51468;BME280;37545;45.302;-122.946;2022-08-18T01:39:47;100324.84;;;36.48;32.50
51468;BME280;37545;45.302;-122.946;2022-08-18T01:42:16;100319.72;;;36.45;32.79
51468;BME280;37545;45.302;-122.946;2022-08-18T01:44:45;100321.69;;;36.43;32.50
51468;BME280;37545;45.302;-122.946;2022-08-18T01:47:17;100308.41;;;36.31;31.21
51468;BME280;37545;45.302;-122.946;2022-08-18T01:49:46;100318.22;;;36.32;30.70
51468;BME280;37545;45.302;-122.946;2022-08-18T01:52:15;100325.69;;;36.28;33.07
51468;BME280;37545;45.302;-122.946;2022-08-18T01:54:48;100338.44;;;36.26;34.09
51468;BME280;37545;45.302;-122.946;2022-08-18T01:57:18;100337.97;;;36.21;33.32
51468;BME280;37545;45.302;-122.946;2022-08-18T01:59:47;100333.25;;;36.13;33.09
51468;BME280;37545;45.302;-122.946;2022-08-18T02:02:25;100328.22;;;36.08;32.78
51468;BME280;37545;45.302;-122.946;2022-08-18T02:04:58;100335.25;;;36.00;31.14
51468;BME280;37545;45.302;-122.946;2022-08-18T02:07:29;100334.91;;;35.93;31.29
51468;BME280;37545;45.302;-122.946;2022-08-18T02:09:59;100333.81;;;35.84;31.29
51468;BME280;37545;45.302;-122.946;2022-08-18T02:12:27;100335.22;;;35.79;30.52
51468;BME280;37545;45.302;-122.946;2022-08-18T02:14:56;100333.00;;;35.73;31.27
51468;BME280;37545;45.302;-122.946;2022-08-18T02:17:24;100337.19;;;35.65;32.38
51468;BME280;37545;45.302;-122.946;2022-08-18T02:19:53;100332.56;;;35.56;32.67
51468;BME280;37545;45.302;-122.946;2022-08-18T02:22:22;100335.72;;;35.50;31.53
51468;BME280;37545;45.302;-122.946;2022-08-18T02:24:50;100329.88;;;35.45;31.51
51468;BME280;37545;45.302;-122.946;2022-08-18T02:27:20;100333.81;;;35.41;32.28
51468;BME280;37545;45.302;-122.946;2022-08-18T02:29:49;100322.69;;;35.34;34.23
51468;BME280;37545;45.302;-122.946;2022-08-18T02:32:17;100322.31;;;35.28;33.78
51468;BME280;37545;45.302;-122.946;2022-08-18T02:34:46;100324.78;;;35.19;34.11
51468;BME280;37545;45.302;-122.946;2022-08-18T02:37:14;100331.00;;;35.09;33.85
51468;BME280;37545;45.302;-122.946;2022-08-18T02:39:43;100338.84;;;35.00;33.77
51468;BME280;37545;45.302;-122.946;2022-08-18T02:42:11;100343.13;;;34.92;33.48
51468;BME280;37545;45.302;-122.946;2022-08-18T02:44:42;100350.91;;;34.83;34.57
51468;BME280;37545;45.302;-122.946;2022-08-18T02:47:10;100364.13;;;34.75;34.94
51468;BME280;37545;45.302;-122.946;2022-08-18T02:49:39;100372.25;;;34.62;34.92
51468;BME280;37545;45.302;-122.946;2022-08-18T02:52:08;100382.72;;;34.54;34.67
51468;BME280;37545;45.302;-122.946;2022-08-18T02:54:37;100387.72;;;34.48;34.88
51468;BME280;37545;45.302;-122.946;2022-08-18T02:57:07;100389.13;;;34.40;34.38
51468;BME280;37545;45.302;-122.946;2022-08-18T02:59:37;100387.69;;;34.36;34.85
51468;BME280;37545;45.302;-122.946;2022-08-18T03:02:08;100386.41;;;34.29;35.78
51468;BME280;37545;45.302;-122.946;2022-08-18T03:04:37;100388.09;;;34.19;36.87
51468;BME280;37545;45.302;-122.946;2022-08-18T03:07:09;100396.06;;;34.08;37.18
51468;BME280;37545;45.302;-122.946;2022-08-18T03:09:36;100406.34;;;33.90;37.83
51468;BME280;37545;45.302;-122.946;2022-08-18T03:12:05;100413.19;;;33.70;38.35
51468;BME280;37545;45.302;-122.946;2022-08-18T03:14:35;100418.66;;;33.55;39.15
51468;BME280;37545;45.302;-122.946;2022-08-18T03:17:07;100420.50;;;33.42;39.63
51468;BME280;37545;45.302;-122.946;2022-08-18T03:19:36;100422.22;;;33.30;38.30
51468;BME280;37545;45.302;-122.946;2022-08-18T03:22:07;100425.69;;;33.20;38.77
51468;BME280;37545;45.302;-122.946;2022-08-18T03:24:35;100434.38;;;33.10;38.58
51468;BME280;37545;45.302;-122.946;2022-08-18T03:27:05;100429.72;;;33.00;39.20
51468;BME280;37545;45.302;-122.946;2022-08-18T03:29:34;100431.22;;;32.91;39.64
51468;BME280;37545;45.302;-122.946;2022-08-18T03:32:04;100430.16;;;32.81;39.93
51468;BME280;37545;45.302;-122.946;2022-08-18T03:34:35;100430.97;;;32.68;39.98
51468;BME280;37545;45.302;-122.946;2022-08-18T03:37:04;100433.34;;;32.60;39.77
51468;BME280;37545;45.302;-122.946;2022-08-18T03:39:32;100439.31;;;32.51;40.34
51468;BME280;37545;45.302;-122.946;2022-08-18T03:42:01;100440.75;;;32.42;40.76
51468;BME280;37545;45.302;-122.946;2022-08-18T03:44:31;100445.00;;;32.32;41.27
51468;BME280;37545;45.302;-122.946;2022-08-18T03:47:02;100457.06;;;32.25;41.04
51468;BME280;37545;45.302;-122.946;2022-08-18T03:49:31;100468.31;;;32.17;41.93
51468;BME280;37545;45.302;-122.946;2022-08-18T03:52:01;100460.78;;;32.09;42.42
51468;BME280;37545;45.302;-122.946;2022-08-18T03:54:30;100471.19;;;32.00;43.23
51468;BME280;37545;45.302;-122.946;2022-08-18T03:56:59;100471.00;;;31.88;43.10
51468;BME280;37545;45.302;-122.946;2022-08-18T03:59:28;100466.34;;;31.78;43.34
51468;BME280;37545;45.302;-122.946;2022-08-18T04:01:58;100465.03;;;31.70;43.19
51468;BME280;37545;45.302;-122.946;2022-08-18T04:04:27;100468.19;;;31.63;44.16
51468;BME280;37545;45.302;-122.946;2022-08-18T04:06:58;100474.88;;;31.56;43.90
51468;BME280;37545;45.302;-122.946;2022-08-18T04:09:32;100475.44;;;31.46;44.69
51468;BME280;37545;45.302;-122.946;2022-08-18T04:12:05;100480.22;;;31.41;44.54
51468;BME280;37545;45.302;-122.946;2022-08-18T04:14:39;100484.22;;;31.34;45.57
51468;BME280;37545;45.302;-122.946;2022-08-18T04:17:09;100483.72;;;31.27;45.51
51468;BME280;37545;45.302;-122.946;2022-08-18T04:19:37;100487.72;;;31.20;45.13
51468;BME280;37545;45.302;-122.946;2022-08-18T04:22:06;100487.25;;;31.14;44.46
51468;BME280;37545;45.302;-122.946;2022-08-18T04:24:36;100500.03;;;31.08;45.27
51468;BME280;37545;45.302;-122.946;2022-08-18T04:27:04;100493.31;;;31.01;45.40
51468;BME280;37545;45.302;-122.946;2022-08-18T04:29:35;100490.06;;;30.96;46.08
51468;BME280;37545;45.302;-122.946;2022-08-18T04:32:11;100484.34;;;30.88;45.53
51468;BME280;37545;45.302;-122.946;2022-08-18T04:34:39;100479.22;;;30.83;45.44
51468;BME280;37545;45.302;-122.946;2022-08-18T04:37:08;100480.63;;;30.75;45.47
51468;BME280;37545;45.302;-122.946;2022-08-18T04:39:38;100477.53;;;30.66;45.71
51468;BME280;37545;45.302;-122.946;2022-08-18T04:42:07;100484.00;;;30.62;45.34
51468;BME280;37545;45.302;-122.946;2022-08-18T04:44:35;100478.94;;;30.58;44.83
51468;BME280;37545;45.302;-122.946;2022-08-18T04:47:05;100480.94;;;30.54;46.13
51468;BME280;37545;45.302;-122.946;2022-08-18T04:49:35;100477.75;;;30.47;46.20
51468;BME280;37545;45.302;-122.946;2022-08-18T04:52:04;100468.47;;;30.39;46.30
51468;BME280;37545;45.302;-122.946;2022-08-18T04:54:51;100477.34;;;30.39;46.37
51468;BME280;37545;45.302;-122.946;2022-08-18T04:57:21;100468.66;;;30.36;46.23
51468;BME280;37545;45.302;-122.946;2022-08-18T04:59:51;100461.84;;;30.30;46.42
51468;BME280;37545;45.302;-122.946;2022-08-18T05:02:20;100453.31;;;30.23;46.55
51468;BME280;37545;45.302;-122.946;2022-08-18T05:04:49;100450.03;;;30.18;46.76
51468;BME280;37545;45.302;-122.946;2022-08-18T05:07:19;100449.47;;;30.13;46.64
51468;BME280;37545;45.302;-122.946;2022-08-18T05:09:51;100448.88;;;30.08;47.54
51468;BME280;37545;45.302;-122.946;2022-08-18T05:12:20;100445.56;;;30.03;47.89
51468;BME280;37545;45.302;-122.946;2022-08-18T05:14:49;100439.56;;;29.99;47.36
51468;BME280;37545;45.302;-122.946;2022-08-18T05:17:19;100444.31;;;29.94;47.95
51468;BME280;37545;45.302;-122.946;2022-08-18T05:19:47;100448.16;;;29.89;48.63
51468;BME280;37545;45.302;-122.946;2022-08-18T05:22:17;100450.25;;;29.83;48.45
51468;BME280;37545;45.302;-122.946;2022-08-18T05:24:46;100444.47;;;29.75;49.12
51468;BME280;37545;45.302;-122.946;2022-08-18T05:27:16;100443.00;;;29.70;50.15
51468;BME280;37545;45.302;-122.946;2022-08-18T05:29:45;100450.38;;;29.64;49.75
51468;BME280;37545;45.302;-122.946;2022-08-18T05:32:14;100455.97;;;29.60;49.57
51468;BME280;37545;45.302;-122.946;2022-08-18T05:34:42;100455.31;;;29.55;50.37
51468;BME280;37545;45.302;-122.946;2022-08-18T05:37:23;100452.22;;;29.47;50.20
51468;BME280;37545;45.302;-122.946;2022-08-18T05:40:00;100462.28;;;29.41;50.51
51468;BME280;37545;45.302;-122.946;2022-08-18T05:42:37;100456.31;;;29.36;50.13
51468;BME280;37545;45.302;-122.946;2022-08-18T05:45:09;100455.72;;;29.31;49.78
51468;BME280;37545;45.302;-122.946;2022-08-18T05:47:38;100456.81;;;29.27;50.17
51468;BME280;37545;45.302;-122.946;2022-08-18T05:50:09;100456.97;;;29.24;50.20
51468;BME280;37545;45.302;-122.946;2022-08-18T05:52:40;100458.00;;;29.21;51.26
51468;BME280;37545;45.302;-122.946;2022-08-18T05:55:15;100462.81;;;29.15;51.33
51468;BME280;37545;45.302;-122.946;2022-08-18T05:58:07;100464.84;;;29.10;51.04
51468;BME280;37545;45.302;-122.946;2022-08-18T06:00:38;100454.66;;;29.00;51.06
51468;BME280;37545;45.302;-122.946;2022-08-18T06:03:12;100461.91;;;28.97;51.10
51468;BME280;37545;45.302;-122.946;2022-08-18T06:05:52;100458.72;;;28.90;50.81
51468;BME280;37545;45.302;-122.946;2022-08-18T06:08:27;100450.03;;;28.87;50.20
51468;BME280;37545;45.302;-122.946;2022-08-18T06:10:57;100455.59;;;28.82;50.93
51468;BME280;37545;45.302;-122.946;2022-08-18T06:13:37;100451.44;;;28.76;50.20
51468;BME280;37545;45.302;-122.946;2022-08-18T06:16:10;100455.13;;;28.74;51.08
51468;BME280;37545;45.302;-122.946;2022-08-18T06:18:46;100452.63;;;28.71;51.25
51468;BME280;37545;45.302;-122.946;2022-08-18T06:21:27;100446.50;;;28.69;51.59
51468;BME280;37545;45.302;-122.946;2022-08-18T06:24:08;100444.16;;;28.63;51.15
51468;BME280;37545;45.302;-122.946;2022-08-18T06:26:43;100446.19;;;28.57;50.21
51468;BME280;37545;45.302;-122.946;2022-08-18T06:29:29;100447.34;;;28.52;52.10
51468;BME280;37545;45.302;-122.946;2022-08-18T06:32:08;100446.72;;;28.47;52.19
51468;BME280;37545;45.302;-122.946;2022-08-18T06:35:00;100457.56;;;28.42;52.12
51468;BME280;37545;45.302;-122.946;2022-08-18T06:37:35;100457.72;;;28.39;52.42
51468;BME280;37545;45.302;-122.946;2022-08-18T06:40:25;100457.88;;;28.36;52.45
51468;BME280;37545;45.302;-122.946;2022-08-18T06:42:53;100466.09;;;28.31;54.17
51468;BME280;37545;45.302;-122.946;2022-08-18T06:45:29;100465.81;;;28.18;54.24
51468;BME280;37545;45.302;-122.946;2022-08-18T06:48:04;100471.41;;;28.12;54.63
51468;BME280;37545;45.302;-122.946;2022-08-18T06:50:39;100473.59;;;28.04;56.40
51468;BME280;37545;45.302;-122.946;2022-08-18T06:53:09;100476.03;;;27.90;56.14
51468;BME280;37545;45.302;-122.946;2022-08-18T06:55:39;100474.56;;;27.83;55.85
51468;BME280;37545;45.302;-122.946;2022-08-18T06:58:23;100467.03;;;27.73;55.68
51468;BME280;37545;45.302;-122.946;2022-08-18T07:00:59;100476.00;;;27.71;55.56
51468;BME280;37545;45.302;-122.946;2022-08-18T07:03:43;100476.78;;;27.73;56.08
51468;BME280;37545;45.302;-122.946;2022-08-18T07:06:28;100489.09;;;27.75;56.18
51468;BME280;37545;45.302;-122.946;2022-08-18T07:09:19;100504.13;;;27.76;55.69
51468;BME280;37545;45.302;-122.946;2022-08-18T07:12:02;100506.78;;;27.76;54.11
51468;BME280;37545;45.302;-122.946;2022-08-18T07:14:41;100523.78;;;27.72;57.38
51468;BME280;37545;45.302;-122.946;2022-08-18T07:17:13;100527.66;;;27.65;56.85
51468;BME280;37545;45.302;-122.946;2022-08-18T07:19:58;100523.81;;;27.52;56.17
51468;BME280;37545;45.302;-122.946;2022-08-18T07:22:27;100538.03;;;27.51;54.96
51468;BME280;37545;45.302;-122.946;2022-08-18T07:24:57;100538.03;;;27.51;56.50
51468;BME280;37545;45.302;-122.946;2022-08-18T07:27:44;100544.09;;;27.54;55.42
51468;BME280;37545;45.302;-122.946;2022-08-18T07:30:27;100544.94;;;27.55;57.65
51468;BME280;37545;45.302;-122.946;2022-08-18T07:33:05;100549.41;;;27.54;55.63
51468;BME280;37545;45.302;-122.946;2022-08-18T07:35:42;100546.78;;;27.53;56.68
51468;BME280;37545;45.302;-122.946;2022-08-18T07:38:16;100559.28;;;27.51;57.16
51468;BME280;37545;45.302;-122.946;2022-08-18T07:40:52;100565.94;;;27.41;56.12
51468;BME280;37545;45.302;-122.946;2022-08-18T07:43:27;100570.59;;;27.35;57.92
51468;BME280;37545;45.302;-122.946;2022-08-18T07:46:03;100558.31;;;27.33;57.28
51468;BME280;37545;45.302;-122.946;2022-08-18T07:48:36;100547.75;;;27.31;58.33
51468;BME280;37545;45.302;-122.946;2022-08-18T07:51:12;100539.13;;;27.26;57.46
51468;BME280;37545;45.302;-122.946;2022-08-18T07:53:49;100530.41;;;27.23;57.67
51468;BME280;37545;45.302;-122.946;2022-08-18T07:56:27;100542.78;;;27.24;57.41
51468;BME280;37545;45.302;-122.946;2022-08-18T07:59:01;100566.59;;;27.25;57.21
51468;BME280;37545;45.302;-122.946;2022-08-18T08:01:35;100583.47;;;27.24;56.77
51468;BME280;37545;45.302;-122.946;2022-08-18T08:04:12;100576.56;;;27.20;56.50
51468;BME280;37545;45.302;-122.946;2022-08-18T08:06:47;100566.91;;;27.17;56.58
51468;BME280;37545;45.302;-122.946;2022-08-18T08:09:19;100567.09;;;27.13;56.50
51468;BME280;37545;45.302;-122.946;2022-08-18T08:11:55;100576.94;;;27.11;56.71
51468;BME280;37545;45.302;-122.946;2022-08-18T08:14:35;100587.88;;;27.03;57.72
51468;BME280;37545;45.302;-122.946;2022-08-18T08:17:12;100593.19;;;27.03;58.69
51468;BME280;37545;45.302;-122.946;2022-08-18T08:20:06;100579.16;;;27.00;59.02
51468;BME280;37545;45.302;-122.946;2022-08-18T08:22:40;100567.78;;;26.96;59.11
51468;BME280;37545;45.302;-122.946;2022-08-18T08:25:15;100576.84;;;26.92;59.97
51468;BME280;37545;45.302;-122.946;2022-08-18T08:27:58;100565.78;;;26.81;60.34
51468;BME280;37545;45.302;-122.946;2022-08-18T08:30:37;100572.19;;;26.75;60.59
51468;BME280;37545;45.302;-122.946;2022-08-18T08:33:15;100572.19;;;26.75;60.51
51468;BME280;37545;45.302;-122.946;2022-08-18T08:35:51;100558.13;;;26.73;60.30
51468;BME280;37545;45.302;-122.946;2022-08-18T08:38:24;100555.47;;;26.73;60.18
51468;BME280;37545;45.302;-122.946;2022-08-18T08:40:59;100540.53;;;26.70;60.48
51468;BME280;37545;45.302;-122.946;2022-08-18T08:43:31;100531.91;;;26.65;60.50
51468;BME280;37545;45.302;-122.946;2022-08-18T08:46:06;100543.56;;;26.61;60.64
51468;BME280;37545;45.302;-122.946;2022-08-18T08:48:41;100550.34;;;26.46;62.71
51468;BME280;37545;45.302;-122.946;2022-08-18T08:51:28;100549.50;;;26.22;63.06
51468;BME280;37545;45.302;-122.946;2022-08-18T08:54:05;100556.94;;;26.12;63.12
51468;BME280;37545;45.302;-122.946;2022-08-18T08:56:43;100550.09;;;26.07;63.05
51468;BME280;37545;45.302;-122.946;2022-08-18T08:59:14;100554.66;;;26.03;63.03
51468;BME280;37545;45.302;-122.946;2022-08-18T09:01:50;100570.78;;;25.97;63.42
51468;BME280;37545;45.302;-122.946;2022-08-18T09:04:39;100563.97;;;25.90;63.73
51468;BME280;37545;45.302;-122.946;2022-08-18T09:07:22;100542.06;;;25.85;63.12
51468;BME280;37545;45.302;-122.946;2022-08-18T09:10:14;100540.38;;;25.82;63.00
51468;BME280;37545;45.302;-122.946;2022-08-18T09:12:58;100547.47;;;25.82;63.30
51468;BME280;37545;45.302;-122.946;2022-08-18T09:16:01;100538.75;;;25.78;63.36
51468;BME280;37545;45.302;-122.946;2022-08-18T09:18:43;100543.09;;;25.81;63.27
51468;BME280;37545;45.302;-122.946;2022-08-18T09:21:27;100520.25;;;25.77;63.50
51468;BME280;37545;45.302;-122.946;2022-08-18T09:24:10;100523.88;;;25.74;63.55
51468;BME280;37545;45.302;-122.946;2022-08-18T09:26:45;100525.81;;;25.70;63.85
51468;BME280;37545;45.302;-122.946;2022-08-18T09:29:20;100528.63;;;25.66;64.12
51468;BME280;37545;45.302;-122.946;2022-08-18T09:35:36;100531.69;;;25.54;63.35
51468;BME280;37545;45.302;-122.946;2022-08-18T09:38:15;100540.06;;;25.43;64.01
51468;BME280;37545;45.302;-122.946;2022-08-18T09:41:09;100544.75;;;25.35;64.22
51468;BME280;37545;45.302;-122.946;2022-08-18T09:43:59;100542.13;;;25.33;65.40
51468;BME280;37545;45.302;-122.946;2022-08-18T09:46:55;100540.53;;;25.29;65.36
51468;BME280;37545;45.302;-122.946;2022-08-18T09:49:42;100543.25;;;25.27;64.63
51468;BME280;37545;45.302;-122.946;2022-08-18T09:55:55;100563.72;;;25.22;65.12
51468;BME280;37545;45.302;-122.946;2022-08-18T09:58:48;100561.94;;;25.23;65.54
51468;BME280;37545;45.302;-122.946;2022-08-18T10:01:36;100559.31;;;25.21;65.19
51468;BME280;37545;45.302;-122.946;2022-08-18T10:04:32;100556.78;;;25.18;65.04
51468;BME280;37545;45.302;-122.946;2022-08-18T10:07:16;100555.13;;;25.14;64.62
51468;BME280;37545;45.302;-122.946;2022-08-18T10:10:05;100564.03;;;25.12;64.19
51468;BME280;37545;45.302;-122.946;2022-08-18T10:12:47;100556.25;;;25.07;64.81
51468;BME280;37545;45.302;-122.946;2022-08-18T10:15:49;100551.06;;;25.04;64.95
51468;BME280;37545;45.302;-122.946;2022-08-18T10:18:41;100556.59;;;24.96;66.49
51468;BME280;37545;45.302;-122.946;2022-08-18T10:21:17;100553.53;;;24.83;68.11
51468;BME280;37545;45.302;-122.946;2022-08-18T10:23:53;100561.66;;;24.77;68.39
51468;BME280;37545;45.302;-122.946;2022-08-18T10:29:50;100557.66;;;24.64;68.14
51468;BME280;37545;45.302;-122.946;2022-08-18T10:32:36;100573.72;;;24.58;68.31
51468;BME280;37545;45.302;-122.946;2022-08-18T10:38:36;100571.72;;;24.36;68.51
51468;BME280;37545;45.302;-122.946;2022-08-18T10:41:17;100579.69;;;24.35;67.94
51468;BME280;37545;45.302;-122.946;2022-08-18T10:43:50;100572.69;;;24.34;68.29
51468;BME280;37545;45.302;-122.946;2022-08-18T10:46:21;100573.59;;;24.33;68.30
51468;BME280;37545;45.302;-122.946;2022-08-18T10:49:01;100577.94;;;24.35;68.43
51468;BME280;37545;45.302;-122.946;2022-08-18T10:51:52;100569.03;;;24.38;67.95
51468;BME280;37545;45.302;-122.946;2022-08-18T10:54:32;100567.25;;;24.38;67.92
51468;BME280;37545;45.302;-122.946;2022-08-18T10:57:10;100562.06;;;24.35;67.45
51468;BME280;37545;45.302;-122.946;2022-08-18T10:59:47;100564.75;;;24.34;67.43
51468;BME280;37545;45.302;-122.946;2022-08-18T11:02:38;100571.00;;;24.31;67.74
51468;BME280;37545;45.302;-122.946;2022-08-18T11:05:15;100569.34;;;24.27;68.50
51468;BME280;37545;45.302;-122.946;2022-08-18T11:07:47;100565.03;;;24.24;68.49
51468;BME280;37545;45.302;-122.946;2022-08-18T11:10:18;100560.84;;;24.17;68.33
51468;BME280;37545;45.302;-122.946;2022-08-18T11:13:01;100560.13;;;24.12;68.08
51468;BME280;37545;45.302;-122.946;2022-08-18T11:15:40;100574.34;;;24.08;68.59
51468;BME280;37545;45.302;-122.946;2022-08-18T11:18:30;100582.41;;;24.03;69.18
51468;BME280;37545;45.302;-122.946;2022-08-18T11:21:29;100575.47;;;23.99;69.25
51468;BME280;37545;45.302;-122.946;2022-08-18T11:24:11;100578.22;;;23.95;69.56
51468;BME280;37545;45.302;-122.946;2022-08-18T11:26:40;100580.06;;;23.93;69.71
51468;BME280;37545;45.302;-122.946;2022-08-18T11:29:28;100574.88;;;23.90;69.99
51468;BME280;37545;45.302;-122.946;2022-08-18T11:32:02;100575.88;;;23.84;70.49
51468;BME280;37545;45.302;-122.946;2022-08-18T11:34:36;100574.25;;;23.80;70.31
51468;BME280;37545;45.302;-122.946;2022-08-18T11:37:15;100568.19;;;23.76;70.41
51468;BME280;37545;45.302;-122.946;2022-08-18T11:39:50;100581.50;;;23.72;70.97
51468;BME280;37545;45.302;-122.946;2022-08-18T11:42:26;100578.94;;;23.69;71.03
51468;BME280;37545;45.302;-122.946;2022-08-18T11:45:02;100579.00;;;23.66;71.11
51468;BME280;37545;45.302;-122.946;2022-08-18T11:47:32;100579.09;;;23.62;71.00
51468;BME280;37545;45.302;-122.946;2022-08-18T11:50:08;100579.34;;;23.53;70.88
51468;BME280;37545;45.302;-122.946;2022-08-18T11:52:51;100583.97;;;23.45;72.07
51468;BME280;37545;45.302;-122.946;2022-08-18T11:55:28;100580.47;;;23.45;72.80
51468;BME280;37545;45.302;-122.946;2022-08-18T11:57:59;100592.72;;;23.47;72.32
51468;BME280;37545;45.302;-122.946;2022-08-18T12:00:52;100590.91;;;23.49;73.12
51468;BME280;37545;45.302;-122.946;2022-08-18T12:03:35;100590.00;;;23.50;72.69
51468;BME280;37545;45.302;-122.946;2022-08-18T12:06:12;100596.19;;;23.49;72.22
51468;BME280;37545;45.302;-122.946;2022-08-18T12:08:52;100588.34;;;23.46;71.93
51468;BME280;37545;45.302;-122.946;2022-08-18T12:11:24;100589.25;;;23.45;72.54
51468;BME280;37545;45.302;-122.946;2022-08-18T12:14:01;100594.63;;;23.42;72.48
51468;BME280;37545;45.302;-122.946;2022-08-18T12:16:34;100595.56;;;23.39;73.23
51468;BME280;37545;45.302;-122.946;2022-08-18T12:19:03;100609.03;;;23.29;73.71
51468;BME280;37545;45.302;-122.946;2022-08-18T12:21:32;100612.03;;;23.15;74.68
51468;BME280;37545;45.302;-122.946;2022-08-18T12:24:03;100603.38;;;23.08;75.26
51468;BME280;37545;45.302;-122.946;2022-08-18T12:26:32;100602.63;;;23.03;75.78
51468;BME280;37545;45.302;-122.946;2022-08-18T12:29:00;100595.69;;;22.97;75.50
51468;BME280;37545;45.302;-122.946;2022-08-18T12:31:29;100597.53;;;22.95;75.27
51468;BME280;37545;45.302;-122.946;2022-08-18T12:33:57;100594.06;;;22.92;75.19
51468;BME280;37545;45.302;-122.946;2022-08-18T12:36:27;100589.75;;;22.89;75.32
51468;BME280;37545;45.302;-122.946;2022-08-18T12:38:56;100589.84;;;22.85;75.84
51468;BME280;37545;45.302;-122.946;2022-08-18T12:41:26;100589.03;;;22.83;75.63
51468;BME280;37545;45.302;-122.946;2022-08-18T12:43:55;100592.59;;;22.80;75.76
51468;BME280;37545;45.302;-122.946;2022-08-18T12:46:24;100592.63;;;22.78;75.75
51468;BME280;37545;45.302;-122.946;2022-08-18T12:48:52;100586.53;;;22.76;75.39
51468;BME280;37545;45.302;-122.946;2022-08-18T12:51:21;100590.09;;;22.74;75.95
51468;BME280;37545;45.302;-122.946;2022-08-18T12:53:50;100589.25;;;22.73;75.71
51468;BME280;37545;45.302;-122.946;2022-08-18T12:56:21;100585.78;;;22.70;75.70
51468;BME280;37545;45.302;-122.946;2022-08-18T12:58:52;100591.13;;;22.68;75.96
51468;BME280;37545;45.302;-122.946;2022-08-18T13:01:21;100586.75;;;22.67;75.46
51468;BME280;37545;45.302;-122.946;2022-08-18T13:03:50;100578.88;;;22.66;75.48
51468;BME280;37545;45.302;-122.946;2022-08-18T13:06:21;100582.41;;;22.65;74.95
51468;BME280;37545;45.302;-122.946;2022-08-18T13:08:49;100578.06;;;22.64;75.08
51468;BME280;37545;45.302;-122.946;2022-08-18T13:11:21;100570.28;;;22.57;75.51